Time;durP1;ratioP1;P1;durP2;ratioP2;P2;SDS_P1;SDS_P2;PMS_P1;PMS_P2;Temp;Humidity;BMP_temperature;BMP_pressure;BME280_temperature;BME280_humidity;BME280_pressure;Samples;Min_cycle;Max_cycle;Signal;HPM_P1;HPM_P2
2023/05/09 00:00:01;;;;;;;30.50;27.30;;;13.60;99.90;;;;;;5012615;28;20445;-69
2023/05/09 00:02:29;;;;;;;31.93;28.20;;;13.60;99.90;;;;;;5011073;28;20449;-69
2023/05/09 00:04:57;;;;;;;30.20;27.00;;;13.50;99.90;;;;;;5011732;28;20553;-69
2023/05/09 00:07:25;;;;;;;31.07;27.67;;;13.50;99.90;;;;;;5011804;28;20544;-68
2023/05/09 00:09:54;;;;;;;29.53;26.50;;;13.50;99.90;;;;;;5011778;28;21013;-69
2023/05/09 00:12:22;;;;;;;29.73;26.70;;;13.50;99.90;;;;;;5012025;28;20442;-70
2023/05/09 00:14:53;;;;;;;32.30;28.03;;;13.40;99.90;;;;;;5012509;28;20543;-69
2023/05/09 00:17:21;;;;;;;30.47;27.17;;;13.20;99.90;;;;;;5011654;28;20434;-69
2023/05/09 00:19:49;;;;;;;31.40;28.00;;;13.10;99.90;;;;;;5011145;28;20552;-69
2023/05/09 00:22:20;;;;;;;29.77;26.70;;;13.00;99.90;;;;;;5011457;28;20444;-69
2023/05/09 00:24:48;;;;;;;31.13;27.87;;;13.10;99.90;;;;;;5011119;28;20468;-69
2023/05/09 00:27:17;;;;;;;34.10;30.50;;;13.00;99.90;;;;;;5011667;28;20544;-69
2023/05/09 00:29:45;;;;;;;32.70;28.30;;;13.00;99.90;;;;;;5011583;28;20486;-69
2023/05/09 00:32:13;;;;;;;31.27;27.80;;;13.00;99.90;;;;;;5010832;28;20433;-69
2023/05/09 00:34:41;;;;;;;32.53;28.00;;;13.00;99.90;;;;;;5010890;28;20466;-69
2023/05/09 00:37:09;;;;;;;32.43;29.03;;;13.00;99.90;;;;;;5011577;28;20893;-69
2023/05/09 00:39:37;;;;;;;29.77;26.70;;;13.00;99.90;;;;;;5013846;28;20443;-70
2023/05/09 00:42:05;;;;;;;28.47;25.67;;;12.90;99.90;;;;;;5010857;28;20446;-70
2023/05/09 00:44:34;;;;;;;29.20;26.20;;;12.70;99.90;;;;;;5010276;28;20461;-69
2023/05/09 00:47:02;;;;;;;34.00;27.70;;;12.60;99.90;;;;;;5010954;28;20437;-70
2023/05/09 00:49:30;;;;;;;27.83;24.57;;;12.60;99.90;;;;;;5010613;28;20486;-69
2023/05/09 00:51:58;;;;;;;29.20;26.03;;;12.50;99.90;;;;;;5011027;28;20531;-69
2023/05/09 00:54:26;;;;;;;28.90;25.80;;;12.40;99.90;;;;;;5009812;28;20548;-69
2023/05/09 00:56:54;;;;;;;31.30;27.30;;;12.40;99.90;;;;;;5010936;28;20453;-69
2023/05/09 00:59:22;;;;;;;32.83;28.47;;;12.30;99.90;;;;;;5010666;28;20469;-69
2023/05/09 01:01:52;;;;;;;35.10;29.23;;;12.50;99.90;;;;;;5011065;28;20450;-69
2023/05/09 01:04:20;;;;;;;34.67;30.30;;;12.50;99.90;;;;;;5009341;28;20463;-69
2023/05/09 01:06:55;;;;;;;30.67;27.33;;;12.50;99.90;;;;;;5011022;28;20438;-69
2023/05/09 01:09:29;;;;;;;34.17;27.20;;;12.50;99.90;;;;;;5010763;28;20974;-69
2023/05/09 01:12:07;;;;;;;28.33;25.33;;;12.50;99.90;;;;;;5010765;28;20496;-69
2023/05/09 01:14:44;;;;;;;30.20;27.10;;;12.40;99.90;;;;;;5009778;28;21021;-69
2023/05/09 01:17:25;;;;;;;31.63;26.90;;;12.40;99.90;;;;;;5010531;28;20452;-69
2023/05/09 01:20:04;;;;;;;31.77;27.00;;;12.30;99.90;;;;;;5011139;28;20491;-70
2023/05/09 01:22:36;;;;;;;31.80;27.80;;;12.30;99.90;;;;;;5009060;28;20433;-69
2023/05/09 01:25:33;;;;;;;33.33;29.60;;;12.30;99.90;;;;;;5010706;28;20497;-69
2023/05/09 01:28:11;;;;;;;34.80;29.53;;;12.30;99.90;;;;;;5010399;28;20442;-69
2023/05/09 01:30:44;;;;;;;32.30;25.93;;;12.30;99.90;;;;;;5010099;28;20535;-70
2023/05/09 01:33:16;;;;;;;31.33;26.27;;;12.40;99.90;;;;;;5008817;28;20549;-69
2023/05/09 01:35:46;;;;;;;31.40;24.87;;;12.50;99.90;;;;;;5010387;28;20480;-70
2023/05/09 01:38:19;;;;;;;31.30;25.47;;;12.50;99.90;;;;;;5010344;28;20448;-70
2023/05/09 01:40:50;;;;;;;27.87;25.17;;;12.40;99.90;;;;;;5010384;28;20438;-70
2023/05/09 01:43:20;;;;;;;29.87;25.40;;;12.40;99.90;;;;;;5008975;28;20437;-70
2023/05/09 01:45:51;;;;;;;29.20;25.93;;;12.60;99.90;;;;;;5010397;28;20968;-70
2023/05/09 01:48:19;;;;;;;30.03;26.73;;;12.70;99.90;;;;;;5010735;28;20453;-70
2023/05/09 01:50:48;;;;;;;26.77;23.87;;;12.70;99.90;;;;;;5010502;28;20480;-69
2023/05/09 01:53:17;;;;;;;31.23;26.47;;;12.60;99.90;;;;;;5009289;28;20445;-70
2023/05/09 01:55:47;;;;;;;30.40;26.90;;;12.60;99.90;;;;;;5009923;28;20879;-70
2023/05/09 01:58:15;;;;;;;32.77;27.30;;;12.60;99.90;;;;;;5010749;28;20453;-69
2023/05/09 02:00:45;;;;;;;30.27;27.07;;;12.60;99.90;;;;;;5010343;28;20445;-69
2023/05/09 02:03:15;;;;;;;33.17;26.67;;;12.60;99.90;;;;;;5008856;28;20451;-69
2023/05/09 02:05:44;;;;;;;33.67;28.20;;;12.50;99.90;;;;;;5009896;28;20472;-70
2023/05/09 02:08:15;;;;;;;33.20;28.17;;;12.50;99.90;;;;;;5010206;28;20445;-70
2023/05/09 02:10:46;;;;;;;35.20;28.90;;;12.50;99.90;;;;;;5010092;28;20491;-70
2023/05/09 02:13:14;;;;;;;36.33;29.60;;;12.40;99.90;;;;;;5009208;28;20850;-69
2023/05/09 02:15:43;;;;;;;36.50;29.53;;;12.40;99.90;;;;;;5010041;28;20484;-69
2023/05/09 02:18:11;;;;;;;35.13;28.17;;;12.40;99.90;;;;;;5010226;28;20451;-69
2023/05/09 02:20:41;;;;;;;30.23;26.37;;;12.40;99.90;;;;;;5010023;28;20445;-69
2023/05/09 02:23:09;;;;;;;30.80;25.30;;;12.40;99.90;;;;;;5009278;28;20444;-69
2023/05/09 02:25:38;;;;;;;31.37;27.63;;;12.40;99.90;;;;;;5010249;28;20458;-69
2023/05/09 02:28:08;;;;;;;29.37;25.90;;;12.40;99.90;;;;;;5010264;28;20441;-69
2023/05/09 02:30:40;;;;;;;29.47;26.17;;;12.40;99.90;;;;;;5010562;28;20504;-70
2023/05/09 02:33:11;;;;;;;28.00;24.93;;;12.50;99.90;;;;;;5011108;28;20445;-69
2023/05/09 02:35:42;;;;;;;27.60;24.77;;;12.60;99.90;;;;;;5014235;28;20480;-70
2023/05/09 02:38:11;;;;;;;27.00;24.30;;;12.60;99.90;;;;;;5014182;28;20936;-70
2023/05/09 02:40:39;;;;;;;27.07;23.90;;;12.70;99.90;;;;;;5014542;28;20441;-71
2023/05/09 02:43:07;;;;;;;27.23;24.53;;;12.70;99.90;;;;;;5013396;28;20951;-70
2023/05/09 02:45:35;;;;;;;26.50;23.63;;;12.70;99.90;;;;;;5014290;28;20555;-70
2023/05/09 02:48:04;;;;;;;26.63;23.80;;;12.70;99.90;;;;;;5013962;28;20961;-70
2023/05/09 02:50:37;;;;;;;26.57;23.83;;;12.70;99.90;;;;;;5014273;28;20477;-70
2023/05/09 02:53:06;;;;;;;26.10;23.30;;;12.70;99.90;;;;;;5012591;28;20543;-70
2023/05/09 02:55:34;;;;;;;26.43;23.63;;;12.80;99.90;;;;;;5013743;28;20865;-70
2023/05/09 02:58:02;;;;;;;24.77;22.20;;;12.80;99.90;;;;;;5013249;28;20454;-70
2023/05/09 03:00:41;;;;;;;26.27;23.57;;;12.70;99.90;;;;;;5013126;28;20448;-70
2023/05/09 03:03:10;;;;;;;26.90;24.00;;;12.70;99.90;;;;;;5012037;28;20446;-71
2023/05/09 03:05:38;;;;;;;27.03;23.97;;;12.70;99.90;;;;;;5013111;28;20475;-70
2023/05/09 03:08:07;;;;;;;28.10;25.30;;;12.70;99.90;;;;;;5013263;28;20821;-71
2023/05/09 03:10:35;;;;;;;25.70;22.93;;;12.70;99.90;;;;;;5012758;28;20481;-70
2023/05/09 03:13:03;;;;;;;28.93;25.50;;;12.70;99.90;;;;;;5012023;28;20517;-70
2023/05/09 03:15:31;;;;;;;27.80;24.80;;;12.60;99.90;;;;;;5012882;28;20461;-70
2023/05/09 03:17:59;;;;;;;27.80;24.83;;;12.60;99.90;;;;;;5012888;28;20449;-70
2023/05/09 03:20:27;;;;;;;26.47;23.73;;;12.60;99.90;;;;;;5012723;28;20451;-71
2023/05/09 03:22:55;;;;;;;27.37;24.37;;;12.60;99.90;;;;;;5011570;28;20520;-71
2023/05/09 03:25:25;;;;;;;32.80;25.33;;;12.50;99.90;;;;;;5012426;28;20561;-71
2023/05/09 03:27:53;;;;;;;29.47;26.40;;;12.50;99.90;;;;;;5012788;28;20445;-70
2023/05/09 03:30:21;;;;;;;27.17;24.50;;;12.50;99.90;;;;;;5012732;28;21004;-70
2023/05/09 03:32:49;;;;;;;30.60;25.70;;;12.50;99.90;;;;;;5011173;28;20495;-71
2023/05/09 03:35:17;;;;;;;29.83;26.63;;;12.40;99.90;;;;;;5012658;28;20470;-70
2023/05/09 03:37:44;;;;;;;31.70;26.93;;;12.40;99.90;;;;;;5012340;28;20453;-70
2023/05/09 03:40:13;;;;;;;27.13;24.23;;;12.30;99.90;;;;;;5012764;28;20504;-71
2023/05/09 03:42:42;;;;;;;26.10;23.30;;;12.50;99.90;;;;;;5011388;28;20549;-70
2023/05/09 03:45:11;;;;;;;30.30;26.37;;;12.40;99.90;;;;;;5012148;28;20477;-70
2023/05/09 03:47:39;;;;;;;29.33;25.70;;;12.50;99.90;;;;;;5012382;28;20963;-70
2023/05/09 03:50:08;;;;;;;28.33;25.17;;;12.50;99.90;;;;;;5012573;28;20444;-70
2023/05/09 03:52:37;;;;;;;31.53;24.93;;;12.60;99.90;;;;;;5011398;28;20448;-71
2023/05/09 03:55:06;;;;;;;29.13;26.10;;;12.70;99.90;;;;;;5012978;28;20476;-70
2023/05/09 03:57:35;;;;;;;31.30;27.97;;;12.70;99.90;;;;;;5012303;28;20441;-70
2023/05/09 04:00:05;;;;;;;31.07;26.57;;;12.70;99.90;;;;;;5012186;28;20441;-70
2023/05/09 04:02:33;;;;;;;32.37;28.33;;;12.70;99.90;;;;;;5011432;28;20438;-70
2023/05/09 04:05:02;;;;;;;31.83;28.30;;;12.80;99.90;;;;;;5011857;28;20501;-70
2023/05/09 04:07:30;;;;;;;34.10;28.20;;;12.80;99.90;;;;;;5012010;28;20996;-70
2023/05/09 04:09:58;;;;;;;32.17;28.73;;;12.70;99.90;;;;;;5011881;28;20449;-70
2023/05/09 04:12:26;;;;;;;32.73;27.83;;;12.70;99.90;;;;;;5010909;28;20488;-70
2023/05/09 04:14:54;;;;;;;31.27;27.87;;;12.70;99.90;;;;;;5011603;28;20521;-70
2023/05/09 04:17:23;;;;;;;31.77;28.23;;;12.60;99.90;;;;;;5011683;28;20450;-70
2023/05/09 04:19:51;;;;;;;33.83;29.30;;;12.60;99.90;;;;;;5012029;28;20448;-71
2023/05/09 04:22:19;;;;;;;30.77;27.50;;;12.60;99.90;;;;;;5011238;28;20448;-70
2023/05/09 04:24:47;;;;;;;32.80;28.90;;;12.60;99.90;;;;;;5011035;28;20527;-69
2023/05/09 04:27:15;;;;;;;32.00;27.03;;;12.60;99.90;;;;;;5011620;28;20449;-69
2023/05/09 04:29:43;;;;;;;32.70;28.73;;;12.80;99.90;;;;;;5011505;28;20854;-68
2023/05/09 04:32:11;;;;;;;30.93;27.77;;;12.80;99.90;;;;;;5011036;28;20488;-69
2023/05/09 04:34:40;;;;;;;36.43;29.53;;;12.70;99.90;;;;;;5010806;28;20470;-69
2023/05/09 04:37:08;;;;;;;34.87;29.10;;;12.70;99.90;;;;;;5011291;28;20871;-69
2023/05/09 04:39:36;;;;;;;34.43;29.13;;;12.70;99.90;;;;;;5011704;28;20826;-68
2023/05/09 04:42:04;;;;;;;30.60;27.30;;;12.70;99.90;;;;;;5010608;28;20477;-68
2023/05/09 04:44:32;;;;;;;31.77;28.30;;;12.80;99.90;;;;;;5010374;28;20468;-68
2023/05/09 04:47:00;;;;;;;33.60;28.80;;;12.90;99.90;;;;;;5011021;28;20544;-69
2023/05/09 04:49:28;;;;;;;30.60;27.23;;;12.90;99.90;;;;;;5011153;28;20484;-69
2023/05/09 04:51:57;;;;;;;33.50;26.10;;;12.90;99.90;;;;;;5011058;28;20488;-69
2023/05/09 04:54:25;;;;;;;29.40;25.80;;;12.90;99.90;;;;;;5009697;28;20472;-69
2023/05/09 04:56:53;;;;;;;30.07;25.67;;;13.10;99.90;;;;;;5009910;28;20979;-70
2023/05/09 04:59:36;;;;;;;28.27;25.30;;;13.20;99.90;;;;;;5008724;28;20469;-70
2023/05/09 05:02:05;;;;;;;29.73;25.23;;;13.30;99.90;;;;;;5010295;28;20515;-69
2023/05/09 05:04:32;;;;;;;28.43;25.40;;;13.50;99.90;;;;;;5009627;28;20482;-69
2023/05/09 05:07:02;;;;;;;28.10;25.30;;;13.60;99.90;;;;;;5009745;28;20544;-69
2023/05/09 05:09:30;;;;;;;27.53;24.53;;;13.80;99.90;;;;;;5010157;28;20449;-69
2023/05/09 05:11:58;;;;;;;27.13;24.43;;;13.90;99.90;;;;;;5010555;28;20855;-70
2023/05/09 05:14:30;;;;;;;26.17;23.43;;;14.00;99.90;;;;;;5009881;28;20477;-69
2023/05/09 05:16:58;;;;;;;26.30;23.70;;;14.10;99.90;;;;;;5010228;28;20492;-69
2023/05/09 05:19:26;;;;;;;26.03;23.23;;;14.30;99.90;;;;;;5010523;28;20895;-70
2023/05/09 05:21:54;;;;;;;28.87;24.57;;;14.30;99.90;;;;;;5013240;28;20809;-70
2023/05/09 05:24:23;;;;;;;33.47;25.40;;;14.50;99.90;;;;;;5028737;28;20466;-69
2023/05/09 05:26:51;;;;;;;28.13;25.13;;;14.60;99.90;;;;;;5029254;28;20913;-70
2023/05/09 05:29:20;;;;;;;27.00;24.33;;;14.60;99.90;;;;;;5030294;28;20500;-69
2023/05/09 05:31:48;;;;;;;28.13;25.17;;;14.70;99.90;;;;;;5028903;28;20568;-69
2023/05/09 05:34:16;;;;;;;28.43;25.33;;;14.80;99.90;;;;;;5028859;28;20473;-70
2023/05/09 05:36:44;;;;;;;30.43;27.07;;;14.90;99.90;;;;;;5030305;28;20536;-70
2023/05/09 05:39:12;;;;;;;26.60;23.93;;;14.90;99.90;;;;;;5030079;28;20454;-69
2023/05/09 05:41:41;;;;;;;29.37;26.47;;;14.90;99.90;;;;;;5030199;28;20480;-70
2023/05/09 05:44:09;;;;;;;29.53;26.33;;;14.90;99.90;;;;;;5013526;28;20487;-69
2023/05/09 05:46:37;;;;;;;27.10;24.20;;;15.00;99.90;;;;;;5010031;28;20441;-70
2023/05/09 05:49:05;;;;;;;27.30;24.60;;;15.10;99.90;;;;;;5009954;28;20495;-69
2023/05/09 05:51:33;;;;;;;27.57;24.70;;;15.20;99.90;;;;;;5008957;28;20470;-70
2023/05/09 05:54:01;;;;;;;28.80;25.80;;;15.30;99.90;;;;;;5008720;28;21583;-69
2023/05/09 05:56:29;;;;;;;31.30;26.43;;;15.40;99.90;;;;;;5008910;28;20458;-70
2023/05/09 05:58:58;;;;;;;27.93;25.13;;;15.40;99.90;;;;;;5008380;28;20473;-69
2023/05/09 06:01:26;;;;;;;29.87;26.07;;;15.50;99.90;;;;;;5009978;28;20455;-70
2023/05/09 06:03:54;;;;;;;29.80;26.70;;;15.60;99.90;;;;;;5008978;28;20661;-69
2023/05/09 06:06:23;;;;;;;29.30;25.30;;;15.60;99.90;;;;;;5010356;28;20438;-70
2023/05/09 06:08:51;;;;;;;27.30;24.40;;;15.70;99.90;;;;;;5007033;28;20506;-68
2023/05/09 06:11:19;;;;;;;26.57;23.97;;;15.80;99.90;;;;;;5008868;28;20446;-69
2023/05/09 06:13:47;;;;;;;27.10;24.30;;;16.00;99.90;;;;;;5025674;28;20467;-69
2023/05/09 06:16:17;;;;;;;26.87;24.27;;;16.00;99.90;;;;;;5028501;28;20575;-69
2023/05/09 06:18:47;;;;;;;27.07;23.63;;;16.20;99.90;;;;;;5028066;28;20445;-68
2023/05/09 06:21:15;;;;;;;28.43;25.53;;;16.40;99.90;;;;;;5028803;28;20559;-68
2023/05/09 06:23:43;;;;;;;26.87;24.20;;;16.60;99.90;;;;;;5027370;28;20898;-68
2023/05/09 06:26:31;;;;;;;26.37;23.77;;;16.90;99.50;;;;;;5028546;28;20523;-68
2023/05/09 06:28:59;;;;;;;24.50;22.10;;;17.10;99.90;;;;;;5028527;28;20452;-68
2023/05/09 06:31:28;;;;;;;26.10;23.47;;;17.40;99.90;;;;;;5015817;28;20952;-69
2023/05/09 06:33:56;;;;;;;28.87;26.17;;;17.60;99.30;;;;;;5009266;28;20465;-68
2023/05/09 06:36:24;;;;;;;27.13;24.33;;;17.80;97.10;;;;;;5007343;28;20468;-68
2023/05/09 06:38:52;;;;;;;27.13;24.60;;;18.10;97.90;;;;;;5009789;28;20876;-69
2023/05/09 06:41:20;;;;;;;24.87;22.47;;;18.30;98.60;;;;;;5008691;28;20445;-69
2023/05/09 06:43:48;;;;;;;26.40;23.80;;;18.40;94.20;;;;;;5006164;28;20449;-69
2023/05/09 06:46:16;;;;;;;27.53;24.80;;;18.60;94.10;;;;;;5008518;28;20520;-68
2023/05/09 06:48:46;;;;;;;26.17;23.70;;;18.70;94.00;;;;;;5006127;28;20520;-68
2023/05/09 06:51:14;;;;;;;27.30;24.70;;;18.70;94.30;;;;;;5005420;28;20453;-69
2023/05/09 06:53:41;;;;;;;28.63;25.37;;;18.70;95.00;;;;;;4999963;28;20485;-69
2023/05/09 06:56:09;;;;;;;31.17;25.13;;;18.40;91.90;;;;;;5000165;28;20465;-69
2023/05/09 06:58:37;;;;;;;27.60;25.00;;;18.20;92.30;;;;;;5008646;28;20626;-69
2023/05/09 07:01:05;;;;;;;28.00;25.07;;;18.10;92.60;;;;;;5008818;28;20450;-69
2023/05/09 07:03:33;;;;;;;27.93;25.23;;;18.00;93.50;;;;;;5007241;28;20441;-69
2023/05/09 07:06:03;;;;;;;29.60;26.53;;;17.90;93.20;;;;;;5008418;28;21001;-69
2023/05/09 07:08:31;;;;;;;25.97;23.37;;;18.00;93.20;;;;;;5008269;28;20914;-69
2023/05/09 07:10:59;;;;;;;27.60;24.90;;;18.20;93.40;;;;;;5008855;28;20442;-70
2023/05/09 07:13:27;;;;;;;27.77;25.00;;;18.30;92.40;;;;;;5007097;28;20473;-70
2023/05/09 07:15:55;;;;;;;25.43;22.93;;;18.40;92.40;;;;;;5008396;28;20474;-69
2023/05/09 07:18:23;;;;;;;23.93;21.67;;;18.50;91.10;;;;;;5008456;28;20477;-70
2023/05/09 07:20:51;;;;;;;24.40;21.77;;;18.60;89.40;;;;;;5008238;28;20540;-69
2023/05/09 07:23:21;;;;;;;23.40;20.90;;;18.80;88.80;;;;;;5009289;28;20448;-69
2023/05/09 07:25:49;;;;;;;25.27;22.60;;;19.00;90.10;;;;;;5010903;28;20470;-68
2023/05/09 07:28:17;;;;;;;26.17;23.57;;;19.30;88.60;;;;;;5012558;28;20441;-68
2023/05/09 07:30:45;;;;;;;22.70;20.70;;;19.50;90.10;;;;;;5012658;28;20452;-68
2023/05/09 07:33:13;;;;;;;23.30;20.93;;;19.50;88.30;;;;;;5011332;28;20474;-68
2023/05/09 07:35:41;;;;;;;23.00;20.80;;;19.80;89.80;;;;;;5012538;28;20465;-69
2023/05/09 07:38:09;;;;;;;22.10;20.00;;;20.00;85.80;;;;;;5012669;28;20855;-68
2023/05/09 07:40:39;;;;;;;20.50;18.40;;;20.10;84.00;;;;;;5012536;28;20437;-68
2023/05/09 07:43:07;;;;;;;21.40;19.40;;;20.40;82.30;;;;;;5011230;28;20948;-68
2023/05/09 07:45:35;;;;;;;21.93;20.03;;;20.40;86.20;;;;;;5012222;28;20983;-68
2023/05/09 07:48:04;;;;;;;22.53;20.57;;;20.50;83.60;;;;;;5012633;28;20441;-68
2023/05/09 07:50:32;;;;;;;21.93;19.63;;;20.50;86.50;;;;;;5012511;28;20449;-69
2023/05/09 07:53:00;;;;;;;22.07;19.77;;;20.60;78.60;;;;;;5011191;28;20897;-69
2023/05/09 07:55:28;;;;;;;23.00;20.77;;;20.50;77.70;;;;;;5012108;28;20492;-69
2023/05/09 07:57:57;;;;;;;20.67;18.77;;;20.50;81.30;;;;;;5012532;28;20857;-69
2023/05/09 08:00:25;;;;;;;19.53;17.80;;;20.40;79.70;;;;;;5012805;28;20499;-69
2023/05/09 08:02:53;;;;;;;19.02;17.35;;;20.30;79.80;;;;;;5009998;28;20794;-68
2023/05/09 08:05:21;;;;;;;17.07;15.57;;;20.20;74.10;;;;;;5012079;28;20372;-68
2023/05/09 08:07:49;;;;;;;16.83;15.43;;;20.10;74.20;;;;;;5012095;28;20438;-69
2023/05/09 08:10:17;;;;;;;17.57;15.87;;;19.90;77.50;;;;;;5012085;28;20445;-69
2023/05/09 08:12:45;;;;;;;17.83;16.23;;;19.90;71.60;;;;;;5010367;28;20480;-69
2023/05/09 08:15:14;;;;;;;18.77;17.17;;;19.90;72.60;;;;;;5011725;28;20493;-69
2023/05/09 08:17:42;;;;;;;18.60;16.80;;;20.00;73.40;;;;;;5011735;28;20538;-68
2023/05/09 08:20:12;;;;;;;18.50;16.57;;;20.00;73.90;;;;;;5011733;28;20494;-69
2023/05/09 08:22:40;;;;;;;26.40;21.10;;;20.00;78.50;;;;;;5010482;28;20839;-70
2023/05/09 08:25:12;;;;;;;21.13;19.17;;;20.10;78.80;;;;;;5011499;28;20462;-69
2023/05/09 08:27:40;;;;;;;22.47;20.33;;;20.00;82.20;;;;;;5011752;28;20450;-69
2023/05/09 08:30:18;;;;;;;24.37;22.03;;;20.00;83.80;;;;;;5011485;28;20443;-69
2023/05/09 08:32:47;;;;;;;22.57;20.47;;;20.00;84.60;;;;;;5010245;28;20998;-68
2023/05/09 08:35:15;;;;;;;22.97;20.67;;;20.00;85.20;;;;;;5011438;28;20501;-69
2023/05/09 08:37:46;;;;;;;20.70;18.90;;;20.00;87.50;;;;;;5010507;28;20481;-69
2023/05/09 08:40:14;;;;;;;22.90;20.80;;;20.10;82.40;;;;;;5012435;28;20538;-69
2023/05/09 08:42:45;;;;;;;20.80;18.80;;;19.90;79.80;;;;;;5009786;28;20529;-69
2023/05/09 08:45:15;;;;;;;21.27;19.07;;;20.00;84.40;;;;;;5011301;28;20490;-68
2023/05/09 08:47:44;;;;;;;17.43;15.80;;;20.10;75.60;;;;;;5008754;28;20437;-67
2023/05/09 08:50:16;;;;;;;18.57;16.80;;;20.20;84.90;;;;;;5016093;28;20507;-69
2023/05/09 08:52:44;;;;;;;18.23;16.40;;;20.50;78.70;;;;;;5020092;28;20458;-68
2023/05/09 08:55:14;;;;;;;19.97;18.07;;;20.70;82.10;;;;;;5024591;28;20463;-68
2023/05/09 08:57:42;;;;;;;19.07;17.27;;;20.90;75.70;;;;;;5014542;28;21167;-69
2023/05/09 09:00:14;;;;;;;20.83;18.87;;;21.20;76.70;;;;;;5025672;28;20461;-68
2023/05/09 09:02:46;;;;;;;19.60;17.80;;;21.30;78.60;;;;;;5010817;28;20469;-68
2023/05/09 09:05:15;;;;;;;18.90;17.10;;;21.40;71.60;;;;;;5007782;28;20512;-68
2023/05/09 09:08:05;;;;;;;18.83;17.17;;;21.60;73.20;;;;;;5004736;28;20432;-69
2023/05/09 09:10:34;;;;;;;18.80;17.20;;;22.10;70.10;;;;;;5009118;28;20475;-69
2023/05/09 09:13:05;;;;;;;18.20;16.60;;;22.40;71.60;;;;;;5006404;28;20456;-69
2023/05/09 09:15:36;;;;;;;16.37;14.97;;;22.60;67.10;;;;;;5007398;28;20461;-69
2023/05/09 09:18:08;;;;;;;17.60;16.10;;;22.70;70.30;;;;;;5006421;28;20569;-69
2023/05/09 09:20:43;;;;;;;17.17;15.67;;;22.80;68.90;;;;;;5004409;28;20450;-68
2023/05/09 09:23:12;;;;;;;19.53;17.73;;;23.00;69.20;;;;;;5007510;28;20449;-69
2023/05/09 09:25:40;;;;;;;18.70;17.10;;;23.20;61.90;;;;;;5004788;28;21239;-69
2023/05/09 09:28:08;;;;;;;16.37;14.97;;;23.20;63.00;;;;;;5006402;28;20939;-68
2023/05/09 09:30:43;;;;;;;20.50;18.53;;;23.50;67.30;;;;;;5014737;28;20471;-69
2023/05/09 09:33:18;;;;;;;17.67;16.07;;;23.30;68.60;;;;;;5015121;28;20545;-69
2023/05/09 09:35:48;;;;;;;18.50;16.80;;;23.40;66.20;;;;;;5017168;28;21004;-69
2023/05/09 09:38:17;;;;;;;17.60;16.00;;;23.30;66.10;;;;;;5010728;28;20456;-69
2023/05/09 09:40:55;;;;;;;19.07;17.47;;;23.30;65.80;;;;;;5009444;28;20449;-69
2023/05/09 09:43:30;;;;;;;19.47;17.70;;;23.60;66.40;;;;;;5008311;28;21023;-69
2023/05/09 09:46:01;;;;;;;18.83;17.03;;;23.80;63.30;;;;;;5026230;28;20577;-69
2023/05/09 09:48:37;;;;;;;19.77;17.90;;;23.90;63.80;;;;;;5017702;28;20472;-69
2023/05/09 09:51:10;;;;;;;17.63;16.07;;;23.90;58.80;;;;;;5017352;28;20765;-69
2023/05/09 09:53:42;;;;;;;15.27;13.97;;;24.10;64.50;;;;;;5025027;28;21047;-69
2023/05/09 09:56:09;;;;;;;16.40;14.93;;;24.70;59.20;;;;;;5014392;28;20519;-69
2023/05/09 09:58:38;;;;;;;15.33;14.10;;;25.00;59.50;;;;;;5021132;28;20469;-70
2023/05/09 10:01:06;;;;;;;14.80;13.50;;;25.60;57.90;;;;;;5021847;28;21013;-70
2023/05/09 10:03:38;;;;;;;15.23;13.97;;;26.10;58.70;;;;;;5012666;28;20450;-70
2023/05/09 10:06:11;;;;;;;16.03;14.67;;;26.50;56.20;;;;;;5010827;28;20461;-69
2023/05/09 10:08:40;;;;;;;15.17;13.77;;;26.30;54.00;;;;;;5018771;28;20437;-69
2023/05/09 10:11:09;;;;;;;14.07;12.97;;;25.90;57.50;;;;;;5017149;28;20441;-69
2023/05/09 10:13:38;;;;;;;14.47;13.27;;;26.20;53.60;;;;;;5024852;28;20827;-68
2023/05/09 10:16:08;;;;;;;13.77;12.67;;;26.00;53.90;;;;;;5009574;28;20473;-68
2023/05/09 10:18:37;;;;;;;11.77;10.87;;;25.90;56.50;;;;;;5010093;28;20500;-68
2023/05/09 10:21:07;;;;;;;11.30;10.30;;;26.10;56.90;;;;;;5009138;28;20489;-68
2023/05/09 10:23:42;;;;;;;9.97;9.07;;;26.20;55.90;;;;;;5023215;28;20541;-68
2023/05/09 10:26:16;;;;;;;9.30;8.60;;;26.40;55.70;;;;;;4996596;28;20596;-70
2023/05/09 10:28:47;;;;;;;12.03;11.03;;;26.90;56.70;;;;;;5009937;28;20446;-69
2023/05/09 10:31:20;;;;;;;10.90;10.00;;;27.30;53.40;;;;;;5009079;28;20983;-69
2023/05/09 10:33:50;;;;;;;11.57;10.67;;;27.50;55.10;;;;;;4996083;28;20894;-70
2023/05/09 10:36:19;;;;;;;14.00;12.90;;;27.40;54.50;;;;;;4990315;28;20593;-70
2023/05/09 10:38:49;;;;;;;13.43;12.37;;;27.40;53.70;;;;;;5006573;28;20484;-69
2023/05/09 10:41:18;;;;;;;12.83;11.93;;;27.70;55.70;;;;;;5013270;28;21320;-70
2023/05/09 10:43:46;;;;;;;12.27;11.17;;;27.70;52.70;;;;;;5006416;28;20433;-69
2023/05/09 10:46:15;;;;;;;13.37;12.17;;;27.70;53.70;;;;;;5022194;28;20497;-70
2023/05/09 10:48:43;;;;;;;13.70;12.50;;;27.50;54.50;;;;;;5021256;28;20445;-69
2023/05/09 10:51:12;;;;;;;15.20;13.90;;;27.10;53.00;;;;;;5014632;28;20889;-69
2023/05/09 10:53:43;;;;;;;13.73;12.53;;;26.30;52.90;;;;;;5012483;28;20437;-70
2023/05/09 10:56:25;;;;;;;12.63;11.60;;;25.80;53.40;;;;;;5009689;28;20564;-70
2023/05/09 10:58:53;;;;;;;12.37;11.40;;;25.80;59.20;;;;;;5006689;28;20434;-70
2023/05/09 11:01:33;;;;;;;13.63;12.57;;;25.70;57.50;;;;;;5008643;28;20450;-69
2023/05/09 11:04:08;;;;;;;10.30;9.40;;;25.80;54.60;;;;;;5006206;28;20465;-69
2023/05/09 11:06:49;;;;;;;13.20;11.90;;;26.20;58.40;;;;;;5009368;28;20450;-69
2023/05/09 11:09:30;;;;;;;13.90;12.60;;;27.00;57.30;;;;;;5027293;28;21148;-69
2023/05/09 11:12:06;;;;;;;12.13;11.13;;;27.50;50.50;;;;;;5011952;28;20478;-69
2023/05/09 11:14:40;;;;;;;12.03;11.10;;;28.00;52.70;;;;;;5011832;28;21324;-69
2023/05/09 11:17:10;;;;;;;13.10;11.90;;;28.40;49.00;;;;;;5012967;28;20434;-69
2023/05/09 11:19:58;;;;;;;11.30;10.37;;;29.00;52.00;;;;;;5012706;28;20437;-69
2023/05/09 11:22:27;;;;;;;10.43;9.53;;;29.40;47.70;;;;;;5010842;28;20499;-70
2023/05/09 11:25:03;;;;;;;11.10;10.20;;;29.70;49.40;;;;;;5010793;28;21031;-69
2023/05/09 11:27:39;;;;;;;12.47;11.37;;;30.00;48.50;;;;;;5007282;28;20485;-69
2023/05/09 11:30:08;;;;;;;11.13;10.23;;;30.00;47.10;;;;;;5005621;28;20441;-70
2023/05/09 11:32:43;;;;;;;11.47;10.57;;;30.00;48.20;;;;;;5003525;28;20529;-70
2023/05/09 11:35:15;;;;;;;10.87;10.13;;;29.70;48.00;;;;;;5001423;28;20574;-69
2023/05/09 11:37:49;;;;;;;10.97;10.17;;;29.80;48.20;;;;;;5002842;28;20442;-69
2023/05/09 11:40:19;;;;;;;8.83;8.23;;;30.00;48.00;;;;;;5001724;28;20439;-69
2023/05/09 11:42:52;;;;;;;8.77;8.17;;;30.00;46.10;;;;;;5022227;28;20475;-69
2023/05/09 11:45:24;;;;;;;7.47;6.77;;;29.90;46.80;;;;;;5010899;28;20974;-69
2023/05/09 11:47:52;;;;;;;9.73;8.97;;;30.10;45.80;;;;;;5017532;28;21356;-69
2023/05/09 11:50:21;;;;;;;9.50;8.80;;;30.70;43.70;;;;;;5023540;28;20447;-69
2023/05/09 11:52:49;;;;;;;9.30;8.40;;;31.00;43.00;;;;;;5002685;28;20906;-69
2023/05/09 11:55:20;;;;;;;12.13;11.13;;;31.50;45.20;;;;;;5003660;28;20564;-69
2023/05/09 11:57:52;;;;;;;11.00;10.20;;;31.70;45.30;;;;;;5008197;28;20980;-69
2023/05/09 12:00:22;;;;;;;10.70;9.80;;;31.70;45.90;;;;;;5007503;28;20476;-69
2023/05/09 12:02:50;;;;;;;10.33;9.57;;;31.40;45.10;;;;;;5006738;28;20446;-69
2023/05/09 12:05:19;;;;;;;8.70;7.80;;;31.00;46.70;;;;;;5007197;28;20458;-70
2023/05/09 12:07:48;;;;;;;8.47;7.87;;;30.70;43.80;;;;;;5008611;28;20441;-70
2023/05/09 12:10:19;;;;;;;9.77;9.07;;;30.20;45.70;;;;;;5007305;28;20449;-69
2023/05/09 12:12:50;;;;;;;9.47;8.77;;;29.30;46.30;;;;;;5007358;28;20474;-68
2023/05/09 12:15:20;;;;;;;8.53;7.83;;;28.40;47.40;;;;;;5006242;28;20817;-69
2023/05/09 12:18:01;;;;;;;11.43;9.17;;;27.60;51.20;;;;;;5007607;28;20446;-69
2023/05/09 12:20:40;;;;;;;8.57;7.97;;;26.90;51.70;;;;;;5008385;28;21176;-69
2023/05/09 12:23:10;;;;;;;8.57;7.93;;;27.00;50.40;;;;;;5007538;28;20438;-69
2023/05/09 12:25:38;;;;;;;8.17;7.47;;;27.70;51.90;;;;;;5007969;28;20490;-68
2023/05/09 12:28:07;;;;;;;8.40;7.80;;;28.80;49.40;;;;;;5007795;28;20450;-69
2023/05/09 12:30:36;;;;;;;7.43;6.87;;;29.20;49.90;;;;;;5007106;28;20491;-69
2023/05/09 12:33:04;;;;;;;7.77;7.07;;;28.80;46.30;;;;;;5005866;28;20437;-69
2023/05/09 12:35:34;;;;;;;8.00;7.20;;;28.30;48.00;;;;;;5007292;28;20512;-69
2023/05/09 12:38:02;;;;;;;7.17;6.57;;;28.20;51.40;;;;;;5007737;28;20944;-69
2023/05/09 12:40:30;;;;;;;7.00;6.40;;;28.70;51.30;;;;;;5007390;28;20465;-69